createdAt,value
2023-06-30T00:00:14.540Z,6.55
2023-06-30T00:02:48.030Z,6.38
2023-06-30T00:05:17.704Z,6.88
2023-06-30T00:07:47.283Z,6.40
2023-06-30T00:10:16.629Z,6.70
2023-06-30T00:12:45.934Z,6.60
2023-06-30T00:15:15.244Z,6.55
2023-06-30T00:17:49.824Z,6.85
2023-06-30T00:20:19.790Z,6.72
2023-06-30T00:22:49.123Z,6.40
2023-06-30T00:25:18.498Z,6.78
2023-06-30T00:27:47.825Z,6.45
2023-06-30T00:30:17.211Z,6.90
2023-06-30T00:32:49.264Z,6.65
2023-06-30T00:35:18.634Z,6.82
2023-06-30T00:37:47.937Z,6.47
2023-06-30T00:40:18.024Z,7.07
2023-06-30T00:42:47.334Z,6.85
2023-06-30T00:45:16.660Z,7.97
2023-06-30T00:47:46.049Z,8.25
2023-06-30T00:50:18.238Z,9.02
2023-06-30T00:52:49.111Z,9.48
2023-06-30T00:57:47.586Z,10.20
2023-06-30T01:00:17.758Z,10.93
2023-06-30T01:02:50.442Z,11.10
2023-06-30T01:05:26.642Z,10.13
2023-06-30T01:07:57.829Z,9.82
2023-06-30T01:10:27.471Z,10.30
2023-06-30T01:12:56.785Z,9.73
2023-06-30T01:15:26.218Z,10.15
2023-06-30T01:17:56.198Z,10.25
2023-06-30T01:20:30.937Z,10.27
2023-06-30T01:23:00.875Z,10.13
2023-06-30T01:25:31.730Z,9.98
2023-06-30T01:30:32.569Z,9.82
2023-06-30T01:33:02.106Z,10.07
2023-06-30T01:35:34.184Z,9.52
2023-06-30T01:38:03.675Z,10.93
2023-06-30T01:40:33.015Z,11.23
2023-06-30T01:43:02.354Z,11.00
2023-06-30T01:45:31.717Z,11.02
2023-06-30T01:48:01.217Z,11.13
2023-06-30T01:50:31.242Z,11.45
2023-06-30T01:53:03.162Z,11.27
2023-06-30T01:55:32.474Z,10.60
2023-06-30T01:58:01.780Z,11.10
2023-06-30T02:00:31.587Z,11.93
2023-06-30T02:03:01.035Z,13.05
2023-06-30T02:05:30.389Z,14.15
2023-06-30T02:07:59.706Z,14.27
2023-06-30T02:10:32.515Z,15.52
2023-06-30T02:13:02.301Z,15.10
2023-06-30T02:15:31.767Z,15.15
2023-06-30T02:18:01.305Z,14.93
2023-06-30T02:20:30.668Z,15.07
2023-06-30T02:23:00.022Z,14.82
2023-06-30T02:25:31.971Z,16.67
2023-06-30T02:28:01.273Z,16.67
2023-06-30T02:30:30.615Z,17.45
2023-06-30T02:32:59.934Z,17.92
2023-06-30T02:35:29.589Z,17.80
2023-06-30T02:37:59.194Z,17.05
2023-06-30T02:40:28.670Z,18.05
2023-06-30T02:43:00.574Z,17.10
2023-06-30T02:45:29.872Z,15.88
2023-06-30T02:47:59.229Z,16.83
2023-06-30T02:50:31.899Z,17.60
2023-06-30T02:53:01.812Z,17.67
2023-06-30T02:55:31.348Z,17.15
2023-06-30T02:58:03.333Z,16.52
2023-06-30T03:00:32.746Z,18.63
2023-06-30T03:03:02.178Z,18.90
2023-06-30T03:05:31.775Z,18.55
2023-06-30T03:08:01.136Z,18.75
2023-06-30T03:10:30.456Z,18.70
2023-06-30T03:12:59.749Z,19.13
2023-06-30T03:15:31.651Z,19.85
2023-06-30T03:18:00.997Z,18.88
2023-06-30T03:20:30.412Z,19.35
2023-06-30T03:22:59.779Z,18.75
2023-06-30T03:25:29.115Z,19.05
2023-06-30T03:27:58.429Z,20.20
2023-06-30T03:30:27.787Z,20.60
2023-06-30T03:32:59.800Z,20.42
2023-06-30T03:35:29.356Z,20.42
2023-06-30T03:37:58.680Z,21.83
2023-06-30T03:40:28.176Z,20.33
2023-06-30T03:42:57.587Z,22.13
2023-06-30T03:45:26.889Z,22.73
2023-06-30T03:47:56.266Z,22.63
2023-06-30T03:50:28.209Z,23.30
2023-06-30T03:52:57.569Z,23.05
2023-06-30T03:55:27.016Z,23.75
2023-06-30T03:57:56.329Z,23.15
2023-06-30T04:00:25.738Z,25.13
2023-06-30T04:02:55.150Z,24.23
2023-06-30T04:05:24.576Z,24.98
2023-06-30T04:07:56.618Z,24.70
2023-06-30T04:10:26.040Z,25.38
2023-06-30T04:12:55.345Z,26.02
2023-06-30T04:15:24.805Z,24.15
2023-06-30T04:17:54.151Z,24.42
2023-06-30T04:20:23.536Z,24.77
2023-06-30T04:22:53.115Z,24.35
2023-06-30T04:25:25.096Z,23.25
2023-06-30T04:27:54.406Z,21.25
2023-06-30T04:30:23.761Z,19.13
2023-06-30T04:32:53.340Z,18.70
2023-06-30T04:35:26.721Z,19.02
2023-06-30T04:37:56.166Z,17.27
2023-06-30T04:40:28.106Z,17.42
2023-06-30T04:42:57.451Z,15.43
2023-06-30T04:45:26.837Z,14.25
2023-06-30T04:47:56.172Z,13.10
2023-06-30T04:50:26.433Z,10.95
2023-06-30T04:52:55.832Z,10.50
2023-06-30T04:55:25.131Z,9.43
2023-06-30T04:57:57.677Z,8.80
2023-06-30T05:00:27.048Z,8.57
2023-06-30T05:02:57.761Z,7.60
2023-06-30T05:05:27.164Z,6.07
2023-06-30T05:07:56.498Z,6.30
2023-06-30T05:10:25.834Z,5.80
2023-06-30T05:12:57.734Z,5.68
2023-06-30T05:15:27.036Z,5.70
2023-06-30T05:17:56.437Z,5.10
2023-06-30T05:20:25.905Z,4.72
2023-06-30T05:22:55.364Z,4.65
2023-06-30T05:25:24.691Z,4.90
2023-06-30T05:27:54.017Z,4.72
2023-06-30T05:30:25.996Z,4.60
2023-06-30T05:32:55.317Z,4.40
2023-06-30T05:35:24.645Z,4.10
2023-06-30T05:37:53.949Z,4.70
2023-06-30T05:40:23.267Z,4.32
2023-06-30T05:42:52.564Z,4.72
2023-06-30T05:45:22.062Z,4.68
2023-06-30T05:47:54.017Z,5.75
2023-06-30T05:50:24.544Z,5.38
2023-06-30T05:52:53.877Z,5.28
2023-06-30T05:55:23.201Z,5.32
2023-06-30T05:57:52.510Z,5.13
2023-06-30T06:00:22.287Z,5.15
2023-06-30T06:02:55.066Z,5.07
2023-06-30T06:05:24.780Z,4.68
2023-06-30T06:07:54.201Z,4.20
2023-06-30T06:10:23.483Z,4.25
2023-06-30T06:12:53.976Z,4.18
2023-06-30T06:15:23.363Z,4.45
2023-06-30T06:17:55.452Z,4.25
2023-06-30T06:20:24.815Z,4.00
2023-06-30T06:22:54.278Z,3.58
2023-06-30T06:25:23.595Z,3.50
2023-06-30T06:27:52.910Z,3.10
2023-06-30T06:30:22.466Z,3.03
2023-06-30T06:32:51.826Z,3.00
2023-06-30T06:35:23.739Z,2.70
2023-06-30T06:37:53.072Z,2.60
2023-06-30T06:40:22.525Z,2.60
2023-06-30T06:42:51.818Z,2.72
2023-06-30T06:45:21.525Z,2.47
2023-06-30T06:48:05.895Z,2.40
2023-06-30T06:50:37.796Z,2.40
2023-06-30T06:53:07.158Z,2.13
2023-06-30T06:55:36.451Z,2.20
2023-06-30T06:58:05.746Z,2.35
2023-06-30T07:00:35.379Z,2.03
2023-06-30T07:03:04.837Z,1.98
2023-06-30T07:05:34.593Z,2.10
2023-06-30T07:08:06.771Z,2.20
2023-06-30T07:10:36.083Z,2.10
2023-06-30T07:13:05.603Z,1.90
2023-06-30T07:15:34.954Z,2.20
2023-06-30T07:18:04.459Z,2.00
2023-06-30T07:20:33.887Z,1.95
2023-06-30T07:23:05.799Z,2.20
2023-06-30T07:25:35.117Z,2.10
2023-06-30T07:28:04.470Z,2.05
2023-06-30T07:30:33.780Z,2.10
2023-06-30T07:33:03.139Z,2.10
2023-06-30T07:35:32.521Z,2.05
2023-06-30T07:38:01.831Z,1.90
2023-06-30T07:40:50.635Z,2.30
2023-06-30T07:43:23.068Z,2.17
2023-06-30T07:45:52.444Z,2.30
2023-06-30T07:48:21.889Z,2.40
2023-06-30T07:51:06.884Z,2.20
2023-06-30T07:53:37.688Z,2.50
2023-06-30T07:56:09.745Z,2.30
2023-06-30T07:58:39.064Z,2.50
2023-06-30T08:01:08.378Z,2.58
2023-06-30T08:03:37.889Z,2.60
2023-06-30T08:06:07.383Z,2.85
2023-06-30T08:08:36.853Z,3.03
2023-06-30T08:11:06.141Z,3.03
2023-06-30T08:13:38.837Z,2.78
2023-06-30T08:16:08.229Z,2.95
2023-06-30T08:18:37.630Z,2.90
2023-06-30T08:21:07.095Z,3.15
2023-06-30T08:23:36.593Z,3.33
2023-06-30T08:26:06.072Z,3.47
2023-06-30T08:28:37.968Z,3.10
2023-06-30T08:31:07.301Z,3.20
2023-06-30T08:33:40.404Z,3.75
2023-06-30T08:36:12.804Z,3.20
2023-06-30T08:38:42.118Z,3.00
2023-06-30T08:41:11.426Z,2.90
2023-06-30T08:43:43.347Z,3.08
2023-06-30T08:46:14.024Z,3.17
2023-06-30T08:48:43.773Z,3.10
2023-06-30T08:51:15.105Z,3.63
2023-06-30T08:53:45.725Z,3.30
2023-06-30T08:56:15.023Z,3.67
2023-06-30T08:58:46.893Z,3.63
2023-06-30T09:01:16.487Z,3.58
2023-06-30T09:03:45.992Z,3.58
2023-06-30T09:06:15.670Z,3.60
2023-06-30T09:08:45.673Z,3.38
2023-06-30T09:11:15.301Z,3.30
2023-06-30T09:13:47.169Z,3.38
2023-06-30T09:16:19.752Z,3.88
2023-06-30T09:18:49.590Z,4.00
2023-06-30T09:21:21.038Z,4.90
2023-06-30T09:23:53.962Z,5.80
2023-06-30T09:26:23.262Z,6.20
2023-06-30T09:28:55.771Z,6.70
2023-06-30T09:31:31.158Z,7.07
2023-06-30T09:34:10.504Z,7.20
2023-06-30T09:36:40.407Z,7.28
2023-06-30T09:39:09.968Z,8.05
2023-06-30T09:41:39.272Z,9.25
2023-06-30T09:44:11.269Z,8.88
2023-06-30T09:46:40.708Z,8.63
2023-06-30T09:49:10.149Z,9.15
2023-06-30T09:51:40.468Z,8.75
2023-06-30T09:54:12.011Z,7.45
2023-06-30T09:56:43.133Z,6.97
2023-06-30T09:59:15.052Z,6.65
2023-06-30T10:01:44.418Z,6.32
2023-06-30T10:04:15.194Z,6.18
2023-06-30T10:06:44.566Z,8.88
2023-06-30T10:09:13.850Z,6.15
2023-06-30T10:11:43.304Z,6.07
2023-06-30T10:14:15.552Z,6.20
2023-06-30T10:16:44.871Z,5.35
2023-06-30T10:19:14.210Z,5.28
2023-06-30T10:21:43.727Z,5.50
2023-06-30T10:24:13.170Z,5.38
2023-06-30T10:26:42.488Z,4.63
2023-06-30T10:29:11.780Z,4.93
2023-06-30T10:31:44.315Z,5.22
2023-06-30T10:34:13.745Z,5.00
2023-06-30T10:36:43.059Z,4.55
2023-06-30T10:39:13.442Z,4.55
2023-06-30T10:41:48.751Z,4.22
2023-06-30T10:44:20.677Z,4.20
2023-06-30T10:46:55.534Z,4.10
2023-06-30T10:49:26.573Z,3.63
2023-06-30T10:54:25.414Z,4.22
2023-06-30T10:56:54.997Z,4.45
2023-06-30T10:59:25.087Z,4.13
2023-06-30T11:02:09.490Z,4.55
2023-06-30T11:04:42.116Z,4.65
2023-06-30T11:07:12.396Z,4.95
2023-06-30T11:09:59.309Z,4.30
2023-06-30T11:12:28.947Z,4.88
2023-06-30T11:14:58.925Z,5.20
2023-06-30T11:17:28.450Z,5.00
2023-06-30T11:20:13.525Z,5.22
2023-06-30T11:22:45.460Z,5.43
2023-06-30T11:25:14.976Z,6.35
2023-06-30T11:27:44.348Z,5.70
2023-06-30T11:30:13.777Z,6.07
2023-06-30T11:32:43.094Z,6.20
2023-06-30T11:35:13.578Z,5.80
2023-06-30T11:37:50.103Z,5.97
2023-06-30T11:40:19.449Z,5.32
2023-06-30T11:42:48.916Z,5.30
2023-06-30T11:45:21.435Z,5.00
2023-06-30T11:47:52.864Z,5.43
2023-06-30T11:50:22.214Z,5.20
2023-06-30T11:52:54.113Z,4.80
2023-06-30T11:55:25.137Z,4.82
2023-06-30T11:57:55.089Z,4.95
2023-06-30T12:00:25.651Z,5.20
2023-06-30T12:02:55.077Z,5.30
2023-06-30T12:05:26.885Z,4.75
2023-06-30T12:07:59.528Z,4.88
2023-06-30T12:10:40.077Z,4.45
2023-06-30T12:13:09.877Z,5.32
2023-06-30T12:15:39.613Z,4.90
2023-06-30T12:18:09.021Z,5.15
2023-06-30T12:20:39.222Z,4.38
2023-06-30T12:23:11.162Z,5.10
2023-06-30T12:25:40.499Z,4.78
2023-06-30T12:28:11.225Z,5.35
2023-06-30T12:30:40.549Z,5.00
2023-06-30T12:33:10.254Z,5.20
2023-06-30T12:35:40.530Z,5.20
2023-06-30T12:38:13.416Z,5.00
2023-06-30T12:40:42.750Z,5.30
2023-06-30T12:43:12.317Z,5.03
2023-06-30T12:45:41.652Z,5.20
2023-06-30T12:48:11.008Z,5.10
2023-06-30T12:50:40.427Z,4.68
2023-06-30T12:53:12.369Z,4.80
2023-06-30T12:55:41.664Z,5.05
2023-06-30T12:58:10.959Z,4.70
2023-06-30T13:00:40.278Z,4.80
2023-06-30T13:03:11.634Z,5.30
2023-06-30T13:05:41.866Z,4.80
2023-06-30T13:08:13.725Z,4.90
2023-06-30T13:10:43.029Z,5.03
2023-06-30T13:13:12.553Z,4.70
2023-06-30T13:15:41.869Z,4.80
2023-06-30T13:18:11.298Z,5.32
2023-06-30T13:20:41.077Z,4.90
2023-06-30T13:23:20.475Z,4.53
2023-06-30T13:28:30.534Z,4.65
2023-06-30T13:30:59.854Z,4.22
2023-06-30T13:33:29.180Z,4.15
2023-06-30T13:35:58.504Z,3.97
2023-06-30T13:38:30.391Z,4.20
2023-06-30T13:40:59.695Z,3.50
2023-06-30T13:43:29.979Z,3.70
2023-06-30T13:45:59.460Z,3.80
2023-06-30T13:48:28.829Z,4.00
2023-06-30T13:50:58.143Z,3.60
2023-06-30T13:53:30.062Z,3.40
2023-06-30T13:55:59.792Z,3.47
2023-06-30T13:58:29.170Z,3.50
2023-06-30T14:00:58.511Z,3.30
2023-06-30T14:03:27.984Z,3.17
2023-06-30T14:05:57.481Z,2.90
2023-06-30T14:08:26.799Z,2.70
2023-06-30T14:10:59.964Z,2.88
2023-06-30T14:13:29.534Z,2.70
2023-06-30T14:15:58.897Z,2.75
2023-06-30T14:18:28.527Z,2.63
2023-06-30T14:20:57.833Z,2.85
2023-06-30T14:23:27.137Z,3.03
2023-06-30T14:25:59.057Z,2.90
2023-06-30T14:28:28.389Z,2.75
2023-06-30T14:30:57.753Z,2.38
2023-06-30T14:33:27.155Z,2.40
2023-06-30T14:35:56.488Z,2.40
2023-06-30T14:38:26.346Z,2.47
2023-06-30T14:40:55.807Z,2.20
2023-06-30T14:43:28.972Z,2.30
2023-06-30T14:45:58.287Z,2.47
2023-06-30T14:48:27.569Z,2.50
2023-06-30T14:50:56.907Z,2.53
2023-06-30T14:53:26.231Z,2.60
2023-06-30T14:55:55.565Z,2.47
2023-06-30T14:58:27.448Z,2.60
2023-06-30T15:00:56.778Z,2.53
2023-06-30T15:03:26.125Z,2.60
2023-06-30T15:05:55.504Z,2.25
2023-06-30T15:08:24.909Z,2.17
2023-06-30T15:10:54.237Z,2.30
2023-06-30T15:13:23.559Z,2.10
2023-06-30T15:15:55.495Z,2.40
2023-06-30T15:18:24.923Z,2.33
2023-06-30T15:20:54.216Z,2.00
2023-06-30T15:23:23.571Z,1.80
2023-06-30T15:25:52.875Z,2.03
2023-06-30T15:28:22.245Z,1.88
2023-06-30T15:30:51.913Z,1.90
2023-06-30T15:33:23.977Z,1.88
2023-06-30T15:35:53.393Z,1.90
2023-06-30T15:38:22.706Z,2.10
2023-06-30T15:40:56.290Z,1.90
2023-06-30T15:43:29.164Z,2.17
2023-06-30T15:45:58.540Z,1.90
2023-06-30T15:48:30.449Z,2.10
2023-06-30T15:50:59.776Z,2.00
2023-06-30T15:53:29.112Z,2.13
2023-06-30T15:55:58.455Z,1.98
2023-06-30T15:58:27.788Z,1.90
2023-06-30T16:00:57.162Z,2.10
2023-06-30T16:03:26.686Z,2.00
2023-06-30T16:05:58.705Z,2.10
2023-06-30T16:08:28.048Z,1.92
2023-06-30T16:10:57.480Z,1.85
2023-06-30T16:13:26.898Z,2.05
2023-06-30T16:15:56.691Z,1.70
2023-06-30T16:18:26.031Z,1.80
2023-06-30T16:20:57.940Z,1.80
2023-06-30T16:23:27.266Z,1.70
2023-06-30T16:25:56.581Z,1.67
2023-06-30T16:28:25.914Z,1.65
2023-06-30T16:30:55.241Z,1.90
2023-06-30T16:33:24.831Z,1.70
2023-06-30T16:35:54.180Z,1.75
2023-06-30T16:38:26.080Z,1.80
2023-06-30T16:40:55.375Z,1.85
2023-06-30T16:43:25.189Z,1.60
2023-06-30T16:45:55.315Z,1.57
2023-06-30T16:48:24.718Z,1.42
2023-06-30T16:50:54.039Z,1.63
2023-06-30T16:53:26.030Z,1.60
2023-06-30T16:55:55.558Z,1.60
2023-06-30T16:58:26.486Z,1.60
2023-06-30T17:00:55.803Z,1.67
2023-06-30T17:03:25.191Z,1.48
2023-06-30T17:05:55.036Z,1.52
2023-06-30T17:08:28.031Z,1.70
2023-06-30T17:10:57.397Z,1.50
2023-06-30T17:13:26.729Z,1.52
2023-06-30T17:15:56.065Z,1.50
2023-06-30T17:18:25.461Z,1.42
2023-06-30T17:20:54.779Z,1.52
2023-06-30T17:23:24.675Z,1.77
2023-06-30T17:25:56.628Z,1.60
2023-06-30T17:28:25.993Z,1.70
2023-06-30T17:30:56.388Z,1.63
2023-06-30T17:33:25.766Z,1.73
2023-06-30T17:35:55.088Z,1.60
2023-06-30T17:38:24.405Z,1.60
2023-06-30T17:40:56.307Z,1.50
2023-06-30T17:43:25.594Z,1.80
2023-06-30T17:45:54.922Z,1.55
2023-06-30T17:48:24.225Z,1.60
2023-06-30T17:50:53.729Z,1.77
2023-06-30T17:53:23.162Z,1.60
2023-06-30T17:55:52.929Z,1.50
2023-06-30T17:58:24.897Z,1.90
2023-06-30T18:00:54.339Z,1.60
2023-06-30T18:03:23.652Z,1.75
2023-06-30T18:05:52.946Z,1.90
2023-06-30T18:08:22.254Z,1.60
2023-06-30T18:11:04.467Z,1.95
2023-06-30T18:13:40.530Z,1.70
2023-06-30T18:16:09.868Z,1.70
2023-06-30T18:18:39.207Z,1.90
2023-06-30T18:21:08.548Z,1.80
2023-06-30T18:23:37.851Z,1.80
2023-06-30T18:26:07.133Z,1.80
2023-06-30T18:28:36.429Z,1.70
2023-06-30T18:31:08.302Z,1.90
2023-06-30T18:33:37.624Z,1.83
2023-06-30T18:36:07.174Z,1.88
2023-06-30T18:38:36.489Z,1.75
2023-06-30T18:41:05.782Z,1.80
2023-06-30T18:43:35.080Z,1.80
2023-06-30T18:46:05.498Z,1.73
2023-06-30T18:48:38.651Z,1.90
2023-06-30T18:51:07.957Z,1.75
2023-06-30T18:53:37.388Z,1.95
2023-06-30T18:56:06.940Z,1.80
2023-06-30T18:58:36.281Z,1.77
2023-06-30T19:01:05.609Z,1.80
2023-06-30T19:03:37.629Z,1.80
2023-06-30T19:06:07.040Z,1.70
2023-06-30T19:08:36.347Z,1.90
2023-06-30T19:11:05.756Z,1.80
2023-06-30T19:13:35.122Z,1.80
2023-06-30T19:16:04.535Z,1.70
2023-06-30T19:18:33.908Z,1.80
2023-06-30T19:21:06.099Z,1.70
2023-06-30T19:23:37.389Z,1.75
2023-06-30T19:26:07.096Z,1.70
2023-06-30T19:28:36.438Z,1.85
2023-06-30T19:31:05.840Z,1.70
2023-06-30T19:33:37.453Z,1.77
2023-06-30T19:36:09.555Z,1.90
2023-06-30T19:38:38.850Z,1.83
2023-06-30T19:41:08.150Z,1.98
2023-06-30T19:43:37.433Z,1.70
2023-06-30T19:46:06.736Z,1.60
2023-06-30T19:48:36.037Z,1.60
2023-06-30T19:51:05.342Z,1.90
2023-06-30T19:53:37.221Z,1.80
2023-06-30T19:56:06.698Z,1.90
2023-06-30T19:58:37.904Z,1.83
2023-06-30T20:01:07.261Z,1.80
2023-06-30T20:03:36.644Z,1.73
2023-06-30T20:06:06.077Z,1.98
2023-06-30T20:08:37.966Z,1.95
2023-06-30T20:11:07.252Z,1.90
2023-06-30T20:13:36.550Z,1.90
2023-06-30T20:16:05.924Z,1.70
2023-06-30T20:18:35.472Z,1.83
2023-06-30T20:21:04.778Z,2.20
2023-06-30T20:23:34.091Z,2.10
2023-06-30T20:26:05.987Z,2.00
2023-06-30T20:28:35.389Z,2.00
2023-06-30T20:31:04.726Z,2.05
2023-06-30T20:33:34.595Z,1.90
2023-06-30T20:36:03.968Z,1.85
2023-06-30T20:38:33.582Z,1.90
2023-06-30T20:41:02.904Z,1.90
2023-06-30T20:43:34.954Z,2.00
2023-06-30T20:46:04.297Z,2.00
2023-06-30T20:48:33.650Z,1.95
2023-06-30T20:51:02.966Z,1.90
2023-06-30T20:53:32.265Z,1.90
2023-06-30T20:56:01.626Z,2.03
2023-06-30T20:58:30.927Z,2.10
2023-06-30T21:01:02.798Z,1.90
2023-06-30T21:03:32.259Z,2.00
2023-06-30T21:06:01.713Z,2.00
2023-06-30T21:08:30.994Z,1.90
2023-06-30T21:11:00.316Z,1.92
2023-06-30T21:13:30.577Z,2.00
2023-06-30T21:15:59.918Z,2.00
2023-06-30T21:18:31.915Z,2.00
2023-06-30T21:21:01.276Z,1.90
2023-06-30T21:23:30.567Z,2.00
2023-06-30T21:26:00.224Z,2.10
2023-06-30T21:28:29.522Z,2.10
2023-06-30T21:31:00.406Z,2.20
2023-06-30T21:36:01.649Z,2.50
2023-06-30T21:38:30.950Z,2.53
2023-06-30T21:41:00.288Z,2.30
2023-06-30T21:43:29.602Z,2.20
2023-06-30T21:46:01.519Z,2.20
2023-06-30T21:48:30.917Z,2.38
2023-06-30T21:51:02.797Z,2.20
2023-06-30T21:53:32.094Z,2.10
2023-06-30T21:56:01.390Z,2.10
2023-06-30T21:58:30.697Z,2.25
2023-06-30T22:01:00.113Z,2.22
2023-06-30T22:03:29.608Z,2.50
2023-06-30T22:05:59.004Z,3.05
2023-06-30T22:08:31.208Z,2.90
2023-06-30T22:11:01.297Z,2.47
2023-06-30T22:13:30.627Z,2.23
2023-06-30T22:15:59.990Z,2.13
2023-06-30T22:18:30.062Z,2.10
2023-06-30T22:20:59.487Z,2.40
2023-06-30T22:23:31.391Z,2.20
2023-06-30T22:26:01.888Z,2.10
2023-06-30T22:28:31.184Z,2.10
2023-06-30T22:31:00.524Z,2.38
2023-06-30T22:33:29.840Z,2.40
2023-06-30T22:35:59.131Z,2.30
2023-06-30T22:38:31.030Z,2.10
2023-06-30T22:41:00.447Z,2.05
2023-06-30T22:43:29.734Z,1.95
2023-06-30T22:45:59.055Z,2.08
2023-06-30T22:48:28.462Z,2.30
2023-06-30T22:50:57.770Z,2.20
2023-06-30T22:53:27.070Z,2.20
2023-06-30T22:55:58.982Z,2.40
2023-06-30T22:58:28.321Z,2.30
2023-06-30T23:00:57.708Z,2.20
2023-06-30T23:03:27.150Z,2.17
2023-06-30T23:05:56.610Z,2.17
2023-06-30T23:08:25.954Z,2.20
2023-06-30T23:10:55.273Z,2.00
2023-06-30T23:13:27.177Z,2.13
2023-06-30T23:15:56.511Z,2.30
2023-06-30T23:18:26.046Z,1.88
2023-06-30T23:20:55.531Z,2.10
2023-06-30T23:23:29.380Z,2.00
2023-06-30T23:25:58.715Z,2.30
2023-06-30T23:28:31.068Z,2.20
2023-06-30T23:31:00.397Z,2.00
2023-06-30T23:33:29.703Z,2.17
2023-06-30T23:35:59.043Z,2.00
2023-06-30T23:38:28.799Z,2.10
2023-06-30T23:40:58.216Z,1.90
2023-06-30T23:43:30.109Z,2.15
2023-06-30T23:45:59.464Z,2.00
2023-06-30T23:48:28.769Z,2.00
2023-06-30T23:50:58.190Z,2.10
2023-06-30T23:53:27.775Z,2.10
2023-06-30T23:55:57.126Z,2.00
2023-06-30T23:58:26.466Z,2.20
